createdAt,value
2024-05-09T00:02:20.385Z,102740.63
2024-05-09T00:05:26.067Z,102741.41
2024-05-09T00:08:31.860Z,102738.03
2024-05-09T00:11:37.747Z,102733.84
2024-05-09T00:14:43.648Z,102722.91
2024-05-09T00:17:52.106Z,102715.31
2024-05-09T00:20:58.167Z,102727.16
2024-05-09T00:24:03.899Z,102723.84
2024-05-09T00:27:11.263Z,102712.84
2024-05-09T00:30:24.410Z,102722.13
2024-05-09T00:33:40.019Z,102715.31
2024-05-09T00:36:45.753Z,102717.00
2024-05-09T00:39:51.331Z,102716.13
2024-05-09T00:42:56.883Z,102714.47
2024-05-09T00:46:02.637Z,102714.44
2024-05-09T00:49:12.298Z,102714.34
2024-05-09T00:52:18.085Z,102697.47
2024-05-09T00:55:24.056Z,102696.59
2024-05-09T00:58:31.247Z,102692.25
2024-05-09T01:01:37.512Z,102702.38
2024-05-09T01:04:46.363Z,102701.47
2024-05-09T01:09:07.719Z,102704.13
2024-05-09T01:12:13.613Z,102696.44
2024-05-09T01:15:19.533Z,102691.34
2024-05-09T01:18:25.274Z,102684.59
2024-05-09T01:21:33.593Z,102684.53
2024-05-09T01:24:41.782Z,102675.09
2024-05-09T01:27:47.451Z,102672.56
2024-05-09T01:30:53.090Z,102670.06
2024-05-09T01:33:58.760Z,102662.38
2024-05-09T01:37:04.312Z,102670.81
2024-05-09T01:40:18.533Z,102684.47
2024-05-09T01:43:28.049Z,102676.69
2024-05-09T01:46:33.591Z,102671.63
2024-05-09T01:49:40.228Z,102659.81
2024-05-09T01:52:45.851Z,102664.03
2024-05-09T01:55:54.160Z,102655.56
2024-05-09T01:58:59.782Z,102649.53
2024-05-09T02:02:05.525Z,102658.91
2024-05-09T02:05:11.831Z,102646.19
2024-05-09T02:08:18.933Z,102645.31
2024-05-09T02:11:27.574Z,102646.06
2024-05-09T02:14:33.258Z,102644.44
2024-05-09T02:17:39.153Z,102634.25
2024-05-09T02:20:45.285Z,102636.72
2024-05-09T02:23:50.944Z,102628.97
2024-05-09T02:26:59.135Z,102636.69
2024-05-09T02:30:09.910Z,102634.97
2024-05-09T02:33:21.269Z,102639.22
2024-05-09T02:36:27.196Z,102635.72
2024-05-09T02:39:30.136Z,102632.38
2024-05-09T02:42:38.367Z,102621.34
2024-05-09T02:45:41.722Z,102622.97
2024-05-09T02:48:47.582Z,102617.97
2024-05-09T02:51:53.337Z,102619.63
2024-05-09T02:54:56.359Z,102609.50
2024-05-09T02:58:05.015Z,102595.22
2024-05-09T03:01:08.033Z,102593.56
2024-05-09T03:04:13.629Z,102594.34
2024-05-09T03:07:20.259Z,102602.78
2024-05-09T03:10:28.500Z,102602.78
2024-05-09T03:13:37.505Z,102607.78
2024-05-09T03:16:40.423Z,102607.78
2024-05-09T03:19:46.462Z,102609.50
2024-05-09T03:22:54.048Z,102607.03
2024-05-09T03:25:58.682Z,102602.75
2024-05-09T03:29:07.020Z,102601.03
2024-05-09T03:32:10.248Z,102596.78
2024-05-09T03:35:16.061Z,102596.78
2024-05-09T03:38:21.942Z,102587.53
2024-05-09T03:41:27.676Z,102590.13
2024-05-09T03:44:36.037Z,102581.53
2024-05-09T03:47:39.005Z,102583.31
2024-05-09T03:50:45.071Z,102582.41
2024-05-09T03:53:48.171Z,102569.69
2024-05-09T03:56:54.481Z,102570.50
2024-05-09T04:00:00.061Z,102568.00
2024-05-09T04:03:07.676Z,102574.78
2024-05-09T04:06:13.122Z,102558.69
2024-05-09T04:09:18.694Z,102557.84
2024-05-09T04:12:21.827Z,102558.69
2024-05-09T04:15:30.250Z,102549.41
2024-05-09T04:18:36.060Z,102561.38
2024-05-09T04:21:39.081Z,102559.69
2024-05-09T04:24:44.618Z,102554.56
2024-05-09T04:27:47.932Z,102552.94
2024-05-09T04:30:56.188Z,102534.31
2024-05-09T04:33:59.279Z,102551.25
2024-05-09T04:37:05.150Z,102540.19
2024-05-09T04:40:17.186Z,102531.72
2024-05-09T04:43:29.285Z,102529.19
2024-05-09T04:46:34.884Z,102529.16
2024-05-09T04:49:40.491Z,102525.69
2024-05-09T04:52:46.464Z,102517.22
2024-05-09T04:55:51.351Z,102521.50
2024-05-09T04:58:57.083Z,102510.50
2024-05-09T05:02:02.974Z,102511.38
2024-05-09T05:05:09.645Z,102512.31
2024-05-09T05:08:17.437Z,102504.72
2024-05-09T05:11:21.482Z,102511.59
2024-05-09T05:14:27.398Z,102504.81
2024-05-09T05:17:35.984Z,102502.22
2024-05-09T05:20:39.289Z,102500.53
2024-05-09T05:23:44.979Z,102483.53
2024-05-09T05:26:48.011Z,102494.59
2024-05-09T05:29:53.600Z,102493.78
2024-05-09T05:32:59.368Z,102488.63
2024-05-09T05:36:05.117Z,102485.25
2024-05-09T05:39:08.027Z,102489.53
2024-05-09T05:42:13.601Z,102482.69
2024-05-09T05:45:16.704Z,102484.38
2024-05-09T05:48:25.239Z,102492.03
2024-05-09T05:51:28.228Z,102502.25
2024-05-09T05:54:33.813Z,102496.34
2024-05-09T05:57:39.372Z,102504.00
2024-05-09T06:00:43.055Z,102499.78
2024-05-09T06:03:51.640Z,102504.88
2024-05-09T06:06:57.336Z,102496.41
2024-05-09T06:10:05.281Z,102490.44
2024-05-09T06:13:14.153Z,102478.59
2024-05-09T06:16:17.518Z,102470.94
2024-05-09T06:19:26.026Z,102467.53
2024-05-09T06:22:29.232Z,102458.19
2024-05-09T06:25:34.935Z,102461.56
2024-05-09T06:28:38.084Z,102461.53
2024-05-09T06:31:43.831Z,102459.81
2024-05-09T06:34:49.758Z,102464.06
2024-05-09T06:37:55.687Z,102447.03
2024-05-09T06:40:58.759Z,102452.13
2024-05-09T06:44:04.399Z,102452.16
2024-05-09T06:47:10.183Z,102460.66
2024-05-09T06:50:23.956Z,102451.31
2024-05-09T06:53:33.602Z,102453.88
2024-05-09T06:56:36.678Z,102449.63
2024-05-09T06:59:42.315Z,102443.72
2024-05-09T07:02:48.229Z,102432.63
2024-05-09T07:05:56.671Z,102430.09
2024-05-09T07:08:59.660Z,102417.31
2024-05-09T07:12:05.355Z,102418.19
2024-05-09T07:15:08.634Z,102411.38
2024-05-09T07:18:17.353Z,102407.13
2024-05-09T07:21:24.364Z,102413.06
2024-05-09T07:24:29.953Z,102406.25
2024-05-09T07:27:33.262Z,102395.13
2024-05-09T07:30:38.854Z,102391.75
2024-05-09T07:33:44.552Z,102390.94
2024-05-09T07:36:52.775Z,102393.44
2024-05-09T07:39:55.736Z,102381.47
2024-05-09T07:43:01.346Z,102381.41
2024-05-09T07:47:03.960Z,102372.03
2024-05-09T07:53:33.829Z,102346.41
2024-05-09T07:56:04.291Z,102361.75
2024-05-09T07:59:07.264Z,102357.41
2024-05-09T08:02:13.064Z,102359.09
2024-05-09T08:05:19.073Z,102355.59
2024-05-09T08:08:24.790Z,102351.25
2024-05-09T08:11:30.480Z,102351.22
2024-05-09T08:14:33.881Z,102337.56
2024-05-09T08:17:39.632Z,102334.84
2024-05-09T08:20:46.060Z,102337.41
2024-05-09T08:23:51.740Z,102328.78
2024-05-09T08:26:57.241Z,102322.13
2024-05-09T08:30:00.333Z,102330.53
2024-05-09T08:33:07.577Z,102320.28
2024-05-09T08:36:11.006Z,102329.59
2024-05-09T08:39:21.135Z,102324.44
2024-05-09T08:42:24.726Z,102309.69
2024-05-09T08:45:30.560Z,102306.97
2024-05-09T08:48:34.969Z,102301.72
2024-05-09T08:51:40.586Z,102293.94
2024-05-09T08:54:46.148Z,102293.13
2024-05-09T08:57:51.817Z,102293.81
2024-05-09T09:00:55.442Z,102285.22
2024-05-09T09:04:04.077Z,102280.28
2024-05-09T09:07:07.359Z,102275.88
2024-05-09T09:10:24.891Z,102272.50
2024-05-09T09:13:33.192Z,102269.09
2024-05-09T09:16:39.093Z,102262.97
2024-05-09T09:19:42.501Z,102262.03
2024-05-09T09:22:48.337Z,102267.81
2024-05-09T09:25:54.011Z,102257.44
2024-05-09T09:29:03.171Z,102254.75
2024-05-09T09:32:10.732Z,102251.50
2024-05-09T09:35:13.676Z,102248.03
2024-05-09T09:38:21.359Z,102242.91
2024-05-09T09:41:30.474Z,102244.38
2024-05-09T09:44:39.556Z,102234.09
2024-05-09T09:47:46.047Z,102246.09
2024-05-09T09:50:52.089Z,102234.78
2024-05-09T09:53:55.691Z,102223.50
2024-05-09T09:57:04.161Z,102227.09
2024-05-09T10:00:11.765Z,102209.91
2024-05-09T10:03:20.256Z,102217.59
2024-05-09T10:06:23.716Z,102215.66
2024-05-09T10:09:29.647Z,102217.69
2024-05-09T10:12:35.635Z,102212.16
2024-05-09T10:15:48.270Z,102206.09
2024-05-09T10:18:51.561Z,102208.78
2024-05-09T10:22:04.375Z,102199.59
2024-05-09T10:25:10.824Z,102198.75
2024-05-09T10:28:16.563Z,102194.47
2024-05-09T10:31:23.624Z,102191.69
2024-05-09T10:34:37.362Z,102197.72
2024-05-09T10:37:40.351Z,102189.13
2024-05-09T10:40:46.533Z,102194.03
2024-05-09T10:43:52.398Z,102182.06
2024-05-09T10:46:58.124Z,102179.34
2024-05-09T10:50:01.260Z,102175.66
2024-05-09T10:53:07.405Z,102168.88
2024-05-09T10:56:11.054Z,102163.69
2024-05-09T10:59:19.280Z,102161.13
2024-05-09T11:02:22.538Z,102160.28
2024-05-09T11:05:28.638Z,102158.34
2024-05-09T11:08:32.469Z,102154.78
2024-05-09T11:11:38.329Z,102145.06
2024-05-09T11:14:53.098Z,102142.31
2024-05-09T11:17:58.879Z,102131.91
2024-05-09T11:21:02.475Z,102128.81
2024-05-09T11:24:11.212Z,102134.81
2024-05-09T11:27:14.747Z,102121.31
2024-05-09T11:30:29.803Z,102117.03
2024-05-09T11:33:40.254Z,102115.13
2024-05-09T11:36:46.097Z,102110.00
2024-05-09T11:39:49.082Z,102109.13
2024-05-09T11:42:54.789Z,102110.69
2024-05-09T11:46:04.010Z,102095.41
2024-05-09T11:49:10.176Z,102099.44
2024-05-09T11:52:13.801Z,102085.91
2024-05-09T11:55:20.185Z,102071.88
2024-05-09T11:58:23.751Z,102072.44
2024-05-09T12:01:32.433Z,102064.47
2024-05-09T12:04:38.427Z,102062.44
2024-05-09T12:07:44.833Z,102058.44
2024-05-09T12:10:50.645Z,102057.41
2024-05-09T12:13:53.741Z,102053.84
2024-05-09T12:17:03.888Z,102051.38
2024-05-09T12:20:14.282Z,102058.31
2024-05-09T12:23:26.692Z,102056.41
2024-05-09T12:26:29.755Z,102052.09
2024-05-09T12:29:38.247Z,102048.69
2024-05-09T12:32:46.310Z,102049.69
2024-05-09T12:35:51.991Z,102042.69
2024-05-09T12:38:55.159Z,102046.22
2024-05-09T12:42:00.853Z,102036.06
2024-05-09T12:45:03.974Z,102039.41
2024-05-09T12:48:13.256Z,102025.16
2024-05-09T12:51:19.205Z,102027.88
2024-05-09T12:54:22.188Z,102021.88
2024-05-09T12:57:28.164Z,102018.28
2024-05-09T13:00:33.957Z,102010.94
2024-05-09T13:03:43.003Z,102011.78
2024-05-09T13:06:46.083Z,102010.47
2024-05-09T13:09:51.777Z,102005.03
2024-05-09T13:12:54.745Z,101991.44
2024-05-09T13:16:00.491Z,101981.94
2024-05-09T13:19:06.218Z,101975.09
2024-05-09T13:22:12.033Z,101968.06
2024-05-09T13:25:15.235Z,101965.50
2024-05-09T13:28:22.917Z,101950.84
2024-05-09T13:31:26.428Z,101948.56
2024-05-09T13:34:34.836Z,101936.38
2024-05-09T13:37:37.833Z,101938.78
2024-05-09T13:40:44.188Z,101927.78
2024-05-09T13:43:49.968Z,101928.69
2024-05-09T13:46:53.181Z,101917.34
2024-05-09T13:50:02.669Z,101912.38
2024-05-09T13:53:07.622Z,101913.91
2024-05-09T13:56:14.162Z,101901.78
2024-05-09T13:59:17.205Z,101900.75
2024-05-09T14:02:23.030Z,101899.25
2024-05-09T14:05:28.749Z,101889.66
2024-05-09T14:08:34.435Z,101864.66
2024-05-09T14:11:37.596Z,101863.78
2024-05-09T14:14:43.199Z,101856.16
2024-05-09T14:17:47.442Z,101864.31
2024-05-09T14:20:55.650Z,101844.38
2024-05-09T14:24:01.201Z,101845.00
2024-05-09T14:27:07.473Z,101833.75
2024-05-09T14:30:22.083Z,101826.25
2024-05-09T14:33:30.898Z,101814.03
2024-05-09T14:36:39.272Z,101817.19
2024-05-09T14:39:42.272Z,101802.72
2024-05-09T14:42:47.967Z,101801.59
2024-05-09T14:45:51.008Z,101800.09
2024-05-09T14:48:58.508Z,101800.75
2024-05-09T14:52:07.531Z,101804.09
2024-05-09T14:55:12.324Z,101797.91
2024-05-09T14:58:18.527Z,101816.22
2024-05-09T15:01:24.174Z,101804.97
2024-05-09T15:04:30.378Z,101796.94
2024-05-09T15:07:36.132Z,101792.69
2024-05-09T15:10:41.725Z,101795.09
2024-05-09T15:13:44.782Z,101796.91
2024-05-09T15:16:50.794Z,101793.75
2024-05-09T15:19:53.958Z,101788.66
2024-05-09T15:23:02.405Z,101785.59
2024-05-09T15:26:05.712Z,101775.31
2024-05-09T15:29:11.318Z,101778.69
2024-05-09T15:32:14.871Z,101780.22
2024-05-09T15:35:20.837Z,101772.56
2024-05-09T15:38:29.307Z,101767.88
2024-05-09T15:41:34.872Z,101763.94
2024-05-09T15:44:37.858Z,101760.56
2024-05-09T15:47:43.635Z,101761.38
2024-05-09T15:50:46.703Z,101762.00
2024-05-09T15:53:54.958Z,101757.28
2024-05-09T15:56:57.959Z,101743.28
2024-05-09T16:00:05.905Z,101748.91
2024-05-09T16:03:17.857Z,101741.63
2024-05-09T16:06:23.520Z,101738.75
2024-05-09T16:09:29.142Z,101739.53
2024-05-09T16:12:34.805Z,101733.03
2024-05-09T16:15:40.651Z,101726.81
2024-05-09T16:18:43.932Z,101717.47
2024-05-09T16:21:49.588Z,101719.28
2024-05-09T16:24:58.049Z,101711.47
2024-05-09T16:28:01.918Z,101721.28
2024-05-09T16:31:08.290Z,101717.38
2024-05-09T16:34:11.519Z,101722.63
2024-05-09T16:37:17.811Z,101705.50
2024-05-09T16:40:34.694Z,101696.75
2024-05-09T16:43:41.989Z,101699.06
2024-05-09T16:46:47.677Z,101699.72
2024-05-09T16:49:50.675Z,101691.31
2024-05-09T16:52:56.238Z,101685.81
2024-05-09T16:56:02.426Z,101699.88
2024-05-09T16:59:08.161Z,101697.16
2024-05-09T17:02:14.128Z,101690.25
2024-05-09T17:05:21.741Z,101697.41
2024-05-09T17:08:24.773Z,101685.13
2024-05-09T17:11:34.562Z,101679.13
2024-05-09T17:14:40.770Z,101676.91
2024-05-09T17:17:47.213Z,101670.25
2024-05-09T17:20:53.110Z,101674.88
2024-05-09T17:23:56.076Z,101667.13
2024-05-09T17:27:04.499Z,101666.00
2024-05-09T17:33:15.473Z,101659.47
2024-05-09T17:36:21.186Z,101655.19
2024-05-09T17:39:24.885Z,101648.00
2024-05-09T17:42:33.297Z,101650.81
2024-05-09T17:45:37.731Z,101634.31
2024-05-09T17:48:43.552Z,101627.44
2024-05-09T17:51:55.220Z,101639.22
2024-05-09T17:54:58.557Z,101632.66
2024-05-09T17:58:07.608Z,101635.03
2024-05-09T18:01:14.043Z,101613.28
2024-05-09T18:04:17.920Z,101630.75
2024-05-09T18:07:23.725Z,101633.25
2024-05-09T18:10:35.563Z,101621.25
2024-05-09T18:13:45.863Z,101615.28
2024-05-09T18:16:51.434Z,101615.91
2024-05-09T18:19:54.479Z,101613.38
2024-05-09T18:23:00.152Z,101609.09
2024-05-09T18:26:03.340Z,101602.56
2024-05-09T18:29:12.274Z,101594.69
2024-05-09T18:32:18.202Z,101591.97
2024-05-09T18:35:21.216Z,101592.19
2024-05-09T18:38:27.108Z,101598.13
2024-05-09T18:41:30.390Z,101586.78
2024-05-09T18:44:38.653Z,101587.50
2024-05-09T18:47:44.338Z,101590.81
2024-05-09T18:50:48.433Z,101589.22
2024-05-09T18:53:55.287Z,101590.31
2024-05-09T18:56:58.272Z,101583.38
2024-05-09T19:00:08.781Z,101582.56
2024-05-09T19:03:16.635Z,101586.19
2024-05-09T19:06:24.792Z,101569.84
2024-05-09T19:09:27.976Z,101574.06
2024-05-09T19:12:33.622Z,101576.75
2024-05-09T19:15:40.138Z,101568.97
2024-05-09T19:18:46.407Z,101573.22
2024-05-09T19:21:49.578Z,101561.19
2024-05-09T19:24:55.605Z,101565.16
2024-05-09T19:27:58.682Z,101571.09
2024-05-09T19:31:07.156Z,101566.09
2024-05-09T19:34:10.263Z,101550.97
2024-05-09T19:37:16.090Z,101553.47
2024-05-09T19:40:25.130Z,101555.84
2024-05-09T19:43:36.799Z,101556.91
2024-05-09T19:46:42.505Z,101562.66
2024-05-09T19:49:48.335Z,101548.84
2024-05-09T19:52:51.256Z,101547.28
2024-05-09T19:55:58.041Z,101549.22
2024-05-09T19:59:04.341Z,101540.38
2024-05-09T20:02:10.104Z,101536.25
2024-05-09T20:05:15.909Z,101536.88
2024-05-09T20:08:18.950Z,101535.19
2024-05-09T20:11:24.970Z,101533.38
2024-05-09T20:14:27.871Z,101542.84
2024-05-09T20:17:36.216Z,101538.38
2024-05-09T20:20:42.485Z,101536.06
2024-05-09T20:23:49.690Z,101536.88
2024-05-09T20:26:52.700Z,101529.03
2024-05-09T20:29:58.561Z,101529.91
2024-05-09T20:33:07.184Z,101527.19
2024-05-09T20:36:14.201Z,101521.50
2024-05-09T20:39:20.049Z,101524.81
2024-05-09T20:42:25.678Z,101537.78
2024-05-09T20:45:28.825Z,101531.47
2024-05-09T20:48:37.268Z,101535.19
2024-05-09T20:51:40.363Z,101534.88
2024-05-09T20:54:46.131Z,101539.06
2024-05-09T20:57:49.160Z,101534.78
2024-05-09T21:00:54.878Z,101534.84
2024-05-09T21:04:01.013Z,101540.81
2024-05-09T21:07:07.100Z,101531.91
2024-05-09T21:10:15.684Z,101538.03
2024-05-09T21:13:25.321Z,101538.72
2024-05-09T21:16:28.408Z,101538.75
2024-05-09T21:19:36.947Z,101522.31
2024-05-09T21:22:39.944Z,101531.75
2024-05-09T21:25:45.533Z,101526.66
2024-05-09T21:28:48.449Z,101532.78
2024-05-09T21:31:54.191Z,101523.13
2024-05-09T21:35:02.481Z,101515.50
2024-05-09T21:38:05.949Z,101531.75
2024-05-09T21:41:12.135Z,101514.78
2024-05-09T21:44:15.129Z,101517.97
2024-05-09T21:47:21.070Z,101520.72
2024-05-09T21:50:36.881Z,101517.13
2024-05-09T21:53:43.648Z,101522.16
2024-05-09T21:56:49.278Z,101518.75
2024-05-09T21:59:54.938Z,101534.84
2024-05-09T22:02:58.172Z,101532.31
2024-05-09T22:06:06.589Z,101525.63
2024-05-09T22:09:09.581Z,101527.06
2024-05-09T22:12:15.279Z,101529.50
2024-05-09T22:15:18.212Z,101525.22
2024-05-09T22:18:23.988Z,101538.56
2024-05-09T22:21:29.686Z,101531.50
2024-05-09T22:24:35.362Z,101540.03
2024-05-09T22:27:38.326Z,101531.44
2024-05-09T22:30:44.190Z,101539.06
2024-05-09T22:33:50.146Z,101545.84
2024-05-09T22:36:55.894Z,101544.22
2024-05-09T22:40:03.213Z,101540.59
2024-05-09T22:43:07.839Z,101543.13
2024-05-09T22:46:13.597Z,101540.31
2024-05-09T22:49:16.947Z,101537.09
2024-05-09T22:52:25.270Z,101547.47
2024-05-09T22:55:28.418Z,101549.47
2024-05-09T22:58:34.576Z,101553.63
2024-05-09T23:01:37.739Z,101539.81
2024-05-09T23:04:43.565Z,101541.66
2024-05-09T23:07:49.236Z,101538.97
2024-05-09T23:10:55.106Z,101538.97
2024-05-09T23:13:58.002Z,101540.63
2024-05-09T23:17:03.706Z,101544.03
2024-05-09T23:20:11.812Z,101551.94
2024-05-09T23:23:20.593Z,101550.44
2024-05-09T23:26:26.175Z,101550.25
2024-05-09T23:29:29.114Z,101561.38
2024-05-09T23:32:34.738Z,101561.38
2024-05-09T23:35:37.952Z,101575.28
2024-05-09T23:38:47.361Z,101563.81
2024-05-09T23:41:50.296Z,101567.91
2024-05-09T23:44:58.492Z,101574.22
2024-05-09T23:48:01.723Z,101570.47
2024-05-09T23:51:07.912Z,101571.22
2024-05-09T23:54:13.546Z,101571.38
2024-05-09T23:57:19.525Z,101572.13
